Time;durP1;ratioP1;P1;durP2;ratioP2;P2;SDS_P1;SDS_P2;PMS_P1;PMS_P2;Temp;Humidity;BMP_temperature;BMP_pressure;BME280_temperature;BME280_humidity;BME280_pressure;Samples;Min_cycle;Max_cycle;Signal;HPM_P1;HPM_P2
2023/06/03 00:01:11;;;;;;;12.50;5.77;;;;;;;18.98;44.68;97433.00;5015904;28;20215;-71
2023/06/03 00:03:39;;;;;;;10.97;5.80;;;;;;;18.75;45.40;97416.56;5019488;28;20187;-70
2023/06/03 00:06:05;;;;;;;11.00;5.50;;;;;;;18.70;45.77;97419.81;5013395;28;21121;-70
2023/06/03 00:08:30;;;;;;;9.63;5.20;;;;;;;18.71;45.56;97416.16;5020846;28;20427;-71
2023/06/03 00:10:56;;;;;;;13.27;5.40;;;;;;;18.74;45.41;97421.06;5018380;28;20850;-71
2023/06/03 00:13:21;;;;;;;7.50;5.53;;;;;;;18.78;45.33;97416.97;5011120;28;20208;-71
2023/06/03 00:15:47;;;;;;;13.30;6.63;;;;;;;18.81;45.29;97421.09;5014196;28;20214;-71
2023/06/03 00:18:13;;;;;;;7.90;5.97;;;;;;;18.71;45.65;97416.16;5022810;28;20267;-70
2023/06/03 00:20:39;;;;;;;12.77;6.07;;;;;;;18.69;45.59;97413.72;5014385;28;20208;-71
2023/06/03 00:23:05;;;;;;;13.30;6.20;;;;;;;18.65;45.44;97416.97;5028089;28;20407;-70
2023/06/03 00:25:34;;;;;;;9.87;5.73;;;;;;;18.72;45.29;97415.94;5028263;28;20200;-71
2023/06/03 00:28:00;;;;;;;10.80;5.80;;;;;;;18.67;45.34;97420.22;5018387;28;20415;-72
2023/06/03 00:30:26;;;;;;;9.10;5.80;;;;;;;18.53;45.46;97414.84;5019241;28;20442;-71
2023/06/03 00:32:51;;;;;;;21.77;6.40;;;;;;;18.56;45.42;97418.97;5017564;28;20188;-71
2023/06/03 00:35:17;;;;;;;7.03;5.63;;;;;;;18.42;45.37;97418.06;5015329;28;20204;-70
2023/06/03 00:37:42;;;;;;;12.73;5.93;;;;;;;18.41;45.57;97411.13;5015335;28;20722;-70
2023/06/03 00:40:08;;;;;;;15.60;5.67;;;;;;;18.41;45.66;97409.31;5028470;28;20229;-71
2023/06/03 00:42:33;;;;;;;9.30;5.03;;;;;;;18.32;45.77;97412.31;5013766;28;20551;-71
2023/06/03 00:44:59;;;;;;;9.30;5.27;;;;;;;18.39;45.44;97408.69;5018509;28;20482;-73
2023/06/03 00:47:25;;;;;;;12.57;5.87;;;;;;;18.45;45.55;97419.53;5017227;28;20267;-70
2023/06/03 00:49:51;;;;;;;9.70;5.20;;;;;;;18.41;45.79;97411.13;5016263;28;20216;-71
2023/06/03 00:52:17;;;;;;;8.67;5.57;;;;;;;18.31;45.72;97408.03;5016220;28;20188;-70
2023/06/03 00:54:43;;;;;;;9.20;5.00;;;;;;;18.32;45.83;97409.66;5018958;28;20223;-70
2023/06/03 00:57:10;;;;;;;10.17;4.80;;;;;;;18.25;45.93;97413.13;5020052;28;20458;-72
2023/06/03 00:59:35;;;;;;;10.10;4.30;;;;;;;18.20;45.99;97410.22;5023174;28;20544;-71
2023/06/03 01:02:01;;;;;;;7.53;4.83;;;;;;;18.20;45.92;97409.41;5020456;28;20425;-70
2023/06/03 01:04:28;;;;;;;9.23;5.20;;;;;;;18.18;46.05;97400.84;5013238;28;20295;-71
2023/06/03 01:07:18;;;;;;;10.83;4.87;;;;;;;18.14;45.98;97404.88;4994280;28;20226;-70
2023/06/03 01:09:56;;;;;;;12.63;4.80;;;;;;;18.11;45.94;97406.09;5008918;28;20802;-71
2023/06/03 01:12:30;;;;;;;11.07;5.13;;;;;;;18.01;46.16;97402.97;5016707;28;20423;-69
2023/06/03 01:15:20;;;;;;;10.43;5.50;;;;;;;17.88;46.35;97406.31;5001606;28;20483;-70
2023/06/03 01:17:50;;;;;;;11.03;4.97;;;;;;;17.89;46.54;97403.50;5023151;28;20498;-70
2023/06/03 01:20:16;;;;;;;10.73;5.10;;;;;;;17.87;46.66;97402.88;5012962;28;20493;-70
2023/06/03 01:22:44;;;;;;;9.37;5.20;;;;;;;17.91;46.73;97398.00;5016755;28;20954;-70
2023/06/03 01:25:15;;;;;;;14.17;4.80;;;;;;;17.87;46.81;97394.91;5016434;28;21065;-70
2023/06/03 01:27:41;;;;;;;12.10;5.27;;;;;;;17.86;46.96;97393.28;5012558;28;20486;-69
2023/06/03 01:30:09;;;;;;;9.80;5.07;;;;;;;17.76;47.21;97395.47;5027166;28;20533;-71
2023/06/03 01:32:36;;;;;;;9.93;5.80;;;;;;;17.74;47.20;97397.47;5020965;28;20418;-70
2023/06/03 01:35:02;;;;;;;11.60;5.37;;;;;;;17.76;47.12;97404.22;5016391;28;20446;-72
2023/06/03 01:37:29;;;;;;;10.60;5.67;;;;;;;17.79;47.15;97403.00;5009554;28;20487;-71
2023/06/03 01:39:54;;;;;;;10.60;4.70;;;;;;;17.70;47.31;97398.88;5015285;28;20851;-71
2023/06/03 01:42:20;;;;;;;11.20;5.13;;;;;;;17.58;47.41;97403.91;5014946;28;20183;-71
2023/06/03 01:44:46;;;;;;;9.57;5.40;;;;;;;17.61;47.51;97396.38;5020298;28;20291;-71
2023/06/03 01:47:11;;;;;;;11.90;5.77;;;;;;;17.48;47.83;97391.78;5019538;28;20184;-71
2023/06/03 01:49:37;;;;;;;11.63;5.70;;;;;;;17.46;48.14;97398.28;5012954;28;20184;-72
2023/06/03 01:52:03;;;;;;;9.37;5.37;;;;;;;17.46;48.32;97399.09;5023270;28;20580;-70
2023/06/03 01:54:29;;;;;;;15.40;5.40;;;;;;;17.45;48.08;97396.66;5008229;28;20455;-72
2023/06/03 01:56:56;;;;;;;10.50;4.93;;;;;;;17.43;48.13;97396.00;5026564;28;20204;-72
2023/06/03 01:59:25;;;;;;;11.27;5.10;;;;;;;17.47;48.18;97394.63;5026633;28;20446;-71
2023/06/03 02:01:52;;;;;;;14.43;5.50;;;;;;;17.40;48.38;97393.75;5009540;28;20510;-71
2023/06/03 02:04:17;;;;;;;8.77;5.30;;;;;;;17.41;48.23;97396.22;5020290;28;20460;-70
2023/06/03 02:06:50;;;;;;;10.23;5.30;;;;;;;17.32;48.25;97397.38;5023337;28;20454;-70
2023/06/03 02:09:16;;;;;;;9.93;4.90;;;;;;;17.20;48.43;97402.34;5011627;28;20191;-71
2023/06/03 02:11:45;;;;;;;12.07;5.40;;;;;;;17.26;48.66;97395.47;5052011;28;20484;-70
2023/06/03 02:14:11;;;;;;;9.10;5.00;;;;;;;17.19;48.79;97395.41;5013732;28;20490;-70
2023/06/03 02:16:37;;;;;;;7.70;4.70;;;;;;;17.15;48.77;97396.78;5018178;28;20466;-71
2023/06/03 02:19:16;;;;;;;8.20;4.73;;;;;;;17.10;48.94;97386.75;5015102;28;20435;-70
2023/06/03 02:21:42;;;;;;;16.20;5.20;;;;;;;17.10;49.10;97393.91;5013438;28;20184;-69
2023/06/03 02:24:09;;;;;;;8.70;4.80;;;;;;;17.09;49.15;97395.72;5011067;28;20438;-72
2023/06/03 02:26:35;;;;;;;7.37;4.67;;;;;;;17.00;48.90;97395.03;5010110;28;20429;-71
2023/06/03 02:29:01;;;;;;;11.20;5.07;;;;;;;16.97;49.33;97395.41;5017829;28;20541;-70
2023/06/03 02:31:27;;;;;;;8.03;4.70;;;;;;;16.99;49.28;97397.88;5026219;28;20431;-70
2023/06/03 02:33:53;;;;;;;13.20;4.73;;;;;;;16.98;49.22;97397.06;5015239;28;20786;-72
2023/06/03 02:36:18;;;;;;;8.47;4.77;;;;;;;16.81;49.43;97395.63;5016865;28;20291;-71
2023/06/03 02:38:44;;;;;;;11.97;5.37;;;;;;;16.74;49.73;97396.38;5012925;28;20264;-71
2023/06/03 02:41:10;;;;;;;25.43;5.20;;;;;;;16.81;49.60;97396.44;5016310;28;20192;-71
2023/06/03 02:43:36;;;;;;;11.33;4.70;;;;;;;16.74;49.83;97398.19;5014971;28;20454;-72
2023/06/03 02:46:01;;;;;;;9.87;5.07;;;;;;;16.77;49.70;97400.47;5018255;28;20212;-71
2023/06/03 02:48:27;;;;;;;10.40;4.90;;;;;;;16.67;49.97;97405.25;5011891;28;20184;-70
2023/06/03 02:50:52;;;;;;;10.40;4.93;;;;;;;16.58;50.07;97404.53;5011062;28;20188;-71
2023/06/03 02:53:18;;;;;;;6.97;4.90;;;;;;;16.58;50.22;97401.88;5011225;28;20188;-70
2023/06/03 02:55:44;;;;;;;6.23;4.53;;;;;;;16.54;50.55;97405.91;5010281;28;20235;-73
2023/06/03 02:58:12;;;;;;;11.20;5.40;;;;;;;16.57;50.30;97408.97;5012259;28;20204;-71
2023/06/03 03:00:38;;;;;;;14.20;5.93;;;;;;;16.54;50.41;97408.53;5010880;28;20800;-71
2023/06/03 03:03:04;;;;;;;10.63;5.63;;;;;;;16.44;50.39;97411.50;5010145;28;20427;-73
2023/06/03 03:05:30;;;;;;;9.07;5.37;;;;;;;16.46;50.57;97404.19;5007050;28;20478;-71
2023/06/03 03:07:58;;;;;;;13.60;5.63;;;;;;;16.40;50.75;97407.56;4964471;28;20309;-73
2023/06/03 03:10:24;;;;;;;10.97;5.40;;;;;;;16.46;50.54;97398.06;4991327;28;20432;-70
2023/06/03 03:12:50;;;;;;;8.47;5.20;;;;;;;16.43;50.70;97405.38;5010952;28;20411;-70
2023/06/03 03:15:15;;;;;;;7.73;5.13;;;;;;;16.34;50.95;97409.13;5011542;28;20438;-70
2023/06/03 03:17:41;;;;;;;12.57;5.13;;;;;;;16.38;51.03;97407.75;5010806;28;20208;-70
2023/06/03 03:20:07;;;;;;;9.90;5.03;;;;;;;16.42;50.79;97411.66;5010541;28;20184;-71
2023/06/03 03:22:34;;;;;;;12.10;6.13;;;;;;;16.43;50.63;97412.50;5017450;28;20187;-70
2023/06/03 03:25:00;;;;;;;10.23;5.00;;;;;;;16.28;51.02;97418.63;5013861;28;20522;-73
2023/06/03 03:27:25;;;;;;;10.70;4.90;;;;;;;16.38;50.97;97410.38;5010740;28;20506;-71
2023/06/03 03:29:55;;;;;;;12.30;4.73;;;;;;;16.33;50.63;97418.06;5010192;28;20496;-71
2023/06/03 03:32:20;;;;;;;9.13;4.77;;;;;;;16.29;51.09;97414.13;5018993;28;20185;-71
2023/06/03 03:35:06;;;;;;;8.70;4.90;;;;;;;16.32;51.00;97416.41;5015611;28;20481;-70
2023/06/03 03:37:31;;;;;;;17.47;4.83;;;;;;;16.20;51.31;97420.53;5004909;28;20578;-70
2023/06/03 03:39:56;;;;;;;21.80;5.47;;;;;;;16.31;50.88;97414.78;5027884;28;20438;-70
2023/06/03 03:42:22;;;;;;;9.20;4.70;;;;;;;16.28;51.20;97415.97;5004627;28;20532;-71
2023/06/03 03:44:48;;;;;;;11.83;5.07;;;;;;;16.29;50.97;97419.44;4971098;28;20298;-70
2023/06/03 03:47:20;;;;;;;7.90;4.80;;;;;;;16.24;51.28;97412.03;5013222;28;20211;-71
2023/06/03 03:49:46;;;;;;;7.60;5.10;;;;;;;16.26;51.36;97409.22;5009737;28;20275;-70
2023/06/03 03:52:13;;;;;;;9.50;5.20;;;;;;;16.29;51.22;97408.84;5012540;28;20519;-70
2023/06/03 03:54:38;;;;;;;9.30;5.63;;;;;;;16.35;51.20;97412.59;5007901;28;20200;-72
2023/06/03 03:57:10;;;;;;;8.33;5.03;;;;;;;16.33;51.38;97415.41;5015782;28;20990;-71
2023/06/03 03:59:36;;;;;;;7.80;4.27;;;;;;;16.30;51.33;97410.50;5012971;28;20184;-69
2023/06/03 04:02:01;;;;;;;9.80;5.27;;;;;;;16.27;51.74;97413.50;5012185;28;21019;-69
2023/06/03 04:04:36;;;;;;;8.50;4.60;;;;;;;16.21;51.73;97411.59;5015262;28;20203;-72
2023/06/03 04:07:01;;;;;;;6.93;4.40;;;;;;;16.23;51.79;97420.19;5010470;28;20179;-70
2023/06/03 04:09:27;;;;;;;8.60;5.10;;;;;;;16.30;51.75;97421.06;5013465;28;21167;-70
2023/06/03 04:11:53;;;;;;;12.13;5.10;;;;;;;16.34;51.67;97418.88;5017460;28;20234;-70
2023/06/03 04:14:25;;;;;;;8.43;4.90;;;;;;;16.36;51.75;97425.66;5015334;28;20652;-70
2023/06/03 04:16:56;;;;;;;10.00;4.77;;;;;;;16.40;51.83;97439.31;4996762;28;20467;-70
2023/06/03 04:19:36;;;;;;;10.77;5.27;;;;;;;16.41;51.86;97433.03;5016956;28;20427;-70
2023/06/03 04:22:06;;;;;;;13.90;5.07;;;;;;;16.47;51.80;97436.75;5003489;28;20431;-71
2023/06/03 04:24:33;;;;;;;8.30;5.50;;;;;;;16.32;52.31;97434.94;5009603;28;20447;-71
2023/06/03 04:26:59;;;;;;;10.13;5.27;;;;;;;16.34;52.38;97443.50;5008204;28;20420;-69
2023/06/03 04:29:24;;;;;;;9.87;5.40;;;;;;;16.34;52.24;97446.16;5016870;28;20935;-72
2023/06/03 04:31:50;;;;;;;9.40;4.87;;;;;;;16.38;52.18;97439.47;5017542;28;20228;-70
2023/06/03 04:34:15;;;;;;;12.93;5.10;;;;;;;16.45;52.31;97442.22;5008989;28;20243;-71
2023/06/03 04:36:41;;;;;;;13.67;6.13;;;;;;;16.51;52.23;97433.56;5004700;28;20751;-71
2023/06/03 04:39:08;;;;;;;7.03;4.60;;;;;;;16.60;52.33;97431.63;5017066;28;20279;-71
2023/06/03 04:41:37;;;;;;;11.80;5.30;;;;;;;16.67;51.87;97432.50;5011373;28;20222;-71
2023/06/03 04:44:05;;;;;;;12.10;5.30;;;;;;;16.71;52.23;97431.16;5009162;28;20780;-71
2023/06/03 04:46:31;;;;;;;8.07;5.87;;;;;;;16.73;52.01;97431.78;5005237;28;20434;-70
2023/06/03 04:48:58;;;;;;;8.93;5.00;;;;;;;16.78;51.80;97431.22;5011233;28;20881;-70
2023/06/03 04:51:27;;;;;;;8.67;5.23;;;;;;;16.77;51.95;97426.09;5009388;28;20422;-72
2023/06/03 04:53:56;;;;;;;8.97;5.30;;;;;;;16.79;52.36;97429.38;5015350;28;20434;-72
2023/06/03 04:56:24;;;;;;;8.97;6.03;;;;;;;16.84;52.01;97429.66;5008181;28;20888;-71
2023/06/03 04:58:54;;;;;;;8.17;5.50;;;;;;;16.88;51.66;97415.84;5008769;28;20489;-70
2023/06/03 05:01:22;;;;;;;14.00;5.80;;;;;;;16.97;51.56;97416.59;5020169;28;20503;-70
2023/06/03 05:03:48;;;;;;;7.73;5.00;;;;;;;17.02;51.53;97423.97;5009484;28;20438;-69
2023/06/03 05:06:13;;;;;;;12.80;4.73;;;;;;;17.12;51.32;97421.03;5020169;28;20489;-71
2023/06/03 05:08:39;;;;;;;8.37;5.60;;;;;;;17.14;50.78;97413.69;5011045;28;20199;-71
2023/06/03 05:11:05;;;;;;;12.70;5.50;;;;;;;17.21;50.74;97422.53;5022563;28;20569;-71
2023/06/03 05:13:31;;;;;;;15.07;5.00;;;;;;;17.28;50.62;97422.59;5005084;28;20193;-71
2023/06/03 05:15:56;;;;;;;11.47;5.00;;;;;;;17.38;50.75;97422.28;5009261;28;20443;-72
2023/06/03 05:18:22;;;;;;;8.13;5.17;;;;;;;17.44;50.11;97432.09;5016742;28;20267;-70
2023/06/03 05:20:47;;;;;;;13.00;5.63;;;;;;;17.50;50.04;97426.03;5012325;28;21710;-71
2023/06/03 05:23:13;;;;;;;9.63;5.33;;;;;;;17.59;49.46;97427.53;5016599;28;20296;-70
2023/06/03 05:25:38;;;;;;;11.63;5.07;;;;;;;17.70;48.90;97430.66;5016039;28;20287;-70
2023/06/03 05:28:04;;;;;;;7.67;4.60;;;;;;;17.81;49.00;97422.19;5021208;28;20180;-71
2023/06/03 05:30:29;;;;;;;6.00;4.43;;;;;;;17.93;48.70;97422.47;5000752;28;20204;-71
2023/06/03 05:32:55;;;;;;;11.57;4.83;;;;;;;18.10;48.20;97425.69;5004541;28;20208;-70
2023/06/03 05:35:20;;;;;;;12.87;4.43;;;;;;;18.20;47.92;97420.81;5014862;28;20689;-72
2023/06/03 05:37:45;;;;;;;8.70;4.90;;;;;;;18.32;47.27;97413.16;5007474;28;20212;-70
2023/06/03 05:40:11;;;;;;;8.83;4.60;;;;;;;18.45;46.55;97420.34;5009889;28;20266;-71
2023/06/03 05:42:36;;;;;;;11.43;4.53;;;;;;;18.56;46.38;97417.13;5008482;28;20246;-70
2023/06/03 05:45:03;;;;;;;11.80;5.00;;;;;;;18.70;45.52;97419.81;5021957;28;20203;-72
2023/06/03 05:47:28;;;;;;;10.80;4.97;;;;;;;18.79;45.64;97418.63;5017212;28;20181;-72
2023/06/03 05:49:54;;;;;;;12.37;4.63;;;;;;;18.93;45.52;97408.03;5006031;28;20890;-71
2023/06/03 05:52:19;;;;;;;11.37;4.93;;;;;;;19.06;45.22;97416.06;5016816;28;20200;-69
2023/06/03 05:54:45;;;;;;;12.13;4.57;;;;;;;19.21;45.23;97409.75;5007717;28;20223;-70
2023/06/03 05:57:10;;;;;;;11.10;4.87;;;;;;;19.32;44.74;97417.13;5010483;28;20208;-70
2023/06/03 05:59:36;;;;;;;16.53;5.57;;;;;;;19.38;43.64;97415.47;5008080;28;20783;-71
2023/06/03 06:02:01;;;;;;;9.13;4.33;;;;;;;19.48;43.88;97413.22;5008597;28;20184;-70
2023/06/03 06:04:27;;;;;;;13.70;5.10;;;;;;;19.60;44.01;97405.47;5014482;28;20225;-70
2023/06/03 06:06:52;;;;;;;11.40;4.50;;;;;;;19.72;43.37;97409.16;5023047;28;20303;-71
2023/06/03 06:09:17;;;;;;;14.83;4.90;;;;;;;19.77;42.40;97409.34;5013595;28;20180;-72
2023/06/03 06:11:43;;;;;;;15.73;4.80;;;;;;;19.89;42.50;97412.22;5008188;28;20265;-72
2023/06/03 06:14:09;;;;;;;9.73;4.70;;;;;;;19.97;42.26;97413.84;5008126;28;20189;-70
2023/06/03 06:16:35;;;;;;;6.27;4.37;;;;;;;20.09;42.16;97409.53;5010521;28;20208;-71
2023/06/03 06:19:00;;;;;;;10.73;4.00;;;;;;;20.18;41.83;97420.75;5018930;28;20427;-72
2023/06/03 06:21:26;;;;;;;9.47;4.00;;;;;;;20.25;41.71;97418.88;5010365;28;20272;-73
2023/06/03 06:23:51;;;;;;;6.03;4.10;;;;;;;20.38;41.44;97422.53;5020350;28;20215;-73
2023/06/03 06:26:17;;;;;;;15.80;5.13;;;;;;;20.44;41.34;97420.88;5008537;28;20198;-72
2023/06/03 06:28:42;;;;;;;11.53;5.47;;;;;;;20.53;41.73;97414.31;5013145;28;20211;-71
2023/06/03 06:31:09;;;;;;;13.27;4.60;;;;;;;20.60;40.92;97417.75;5015672;28;20212;-72
2023/06/03 06:33:35;;;;;;;11.53;5.20;;;;;;;20.72;40.64;97421.38;5008066;28;20192;-71
2023/06/03 06:36:23;;;;;;;5.37;3.73;;;;;;;20.78;40.67;97416.28;5019595;28;20479;-71
2023/06/03 06:38:48;;;;;;;10.90;5.07;;;;;;;20.90;40.48;97414.56;5011021;28;20473;-71
2023/06/03 06:41:15;;;;;;;12.73;5.17;;;;;;;21.00;40.10;97416.75;5013906;28;20423;-71
2023/06/03 06:43:40;;;;;;;15.73;4.60;;;;;;;21.11;40.31;97410.72;5016713;28;22098;-71
2023/06/03 06:46:06;;;;;;;13.23;5.00;;;;;;;21.20;40.30;97416.63;5021905;28;20505;-68
2023/06/03 06:48:34;;;;;;;7.53;4.30;;;;;;;21.28;39.78;97411.03;5012950;28;20187;-72
2023/06/03 06:51:00;;;;;;;11.30;5.13;;;;;;;21.40;39.13;97407.69;5021271;28;20176;-70
2023/06/03 06:53:27;;;;;;;10.93;4.47;;;;;;;21.47;39.13;97416.44;5015376;28;20796;-70
2023/06/03 06:55:57;;;;;;;9.73;4.50;;;;;;;21.57;39.10;97415.94;5011480;28;20688;-70
2023/06/03 06:58:29;;;;;;;17.47;5.00;;;;;;;21.67;39.13;97410.97;5011712;28;20964;-70
2023/06/03 07:00:55;;;;;;;7.20;4.40;;;;;;;21.79;38.93;97411.06;5011748;28;20419;-71
2023/06/03 07:03:21;;;;;;;11.17;4.87;;;;;;;21.89;38.21;97415.88;5010737;28;20454;-70
2023/06/03 07:05:52;;;;;;;9.60;4.17;;;;;;;21.97;38.21;97415.63;5011074;28;20212;-69
2023/06/03 07:08:17;;;;;;;8.53;4.50;;;;;;;22.07;38.35;97412.41;5021138;28;20909;-70
2023/06/03 07:10:43;;;;;;;9.87;4.70;;;;;;;22.14;38.23;97415.03;5018166;28;20438;-71
2023/06/03 07:13:08;;;;;;;11.67;4.83;;;;;;;22.21;37.90;97410.44;5011380;28;20275;-72
2023/06/03 07:15:38;;;;;;;12.03;5.00;;;;;;;22.33;38.09;97414.00;5011967;28;20722;-71
2023/06/03 07:18:03;;;;;;;10.23;4.40;;;;;;;22.43;37.71;97410.03;5018836;28;20228;-72
2023/06/03 07:20:32;;;;;;;12.20;5.00;;;;;;;22.57;37.86;97414.16;5013424;28;20439;-74
2023/06/03 07:22:57;;;;;;;8.80;4.67;;;;;;;22.69;37.19;97416.88;5004465;28;20208;-72
2023/06/03 07:25:32;;;;;;;10.20;4.40;;;;;;;22.80;37.35;97416.13;5020765;28;20541;-71
2023/06/03 07:27:57;;;;;;;11.93;4.40;;;;;;;22.94;37.32;97410.59;5011602;28;20188;-71
2023/06/03 07:30:23;;;;;;;8.53;4.70;;;;;;;23.04;36.94;97413.53;5015367;28;20450;-70
2023/06/03 07:32:50;;;;;;;13.30;4.93;;;;;;;23.12;36.20;97415.88;5013735;28;20196;-70
2023/06/03 07:35:19;;;;;;;11.03;4.90;;;;;;;23.22;36.18;97414.53;5020902;28;20196;-71
2023/06/03 07:37:45;;;;;;;8.97;4.20;;;;;;;23.31;35.97;97410.50;5011221;28;20470;-72
2023/06/03 07:40:17;;;;;;;7.57;4.30;;;;;;;23.41;36.19;97410.75;5011711;28;20427;-72
2023/06/03 07:42:44;;;;;;;8.53;4.40;;;;;;;23.45;36.77;97409.22;5010326;28;20196;-71
2023/06/03 07:45:12;;;;;;;9.43;4.40;;;;;;;23.59;36.27;97414.38;5018407;28;20526;-72
2023/06/03 07:47:37;;;;;;;9.60;4.40;;;;;;;23.72;36.45;97416.81;5012071;28;20419;-71
2023/06/03 07:50:03;;;;;;;8.33;4.37;;;;;;;23.88;36.06;97417.97;5011412;28;20882;-71
2023/06/03 07:52:30;;;;;;;11.17;4.53;;;;;;;24.04;35.69;97419.19;5013401;28;20184;-71
2023/06/03 07:54:56;;;;;;;10.80;4.70;;;;;;;24.14;35.33;97420.44;5005924;28;20701;-72
2023/06/03 07:57:22;;;;;;;7.37;4.10;;;;;;;24.25;35.33;97413.47;5012482;28;20458;-70
2023/06/03 07:59:54;;;;;;;9.30;4.67;;;;;;;24.34;34.99;97426.22;5011815;28;20638;-72
2023/06/03 08:02:20;;;;;;;7.07;4.37;;;;;;;24.49;34.56;97428.44;5010808;28;20242;-72
2023/06/03 08:04:46;;;;;;;11.47;4.77;;;;;;;24.57;34.74;97419.22;5010178;28;20459;-70
2023/06/03 08:07:12;;;;;;;8.60;4.70;;;;;;;24.59;34.11;97427.81;5018462;28;20785;-72
2023/06/03 08:09:37;;;;;;;14.80;5.33;;;;;;;24.59;34.86;97419.75;5012487;28;20236;-69
2023/06/03 08:12:06;;;;;;;6.13;4.17;;;;;;;24.71;34.62;97424.28;5010590;28;20458;-71
2023/06/03 08:14:33;;;;;;;16.27;5.00;;;;;;;24.67;34.54;97429.28;5011755;28;20240;-70
2023/06/03 08:17:13;;;;;;;6.97;4.00;;;;;;;24.84;34.17;97432.88;5010804;28;20464;-71
2023/06/03 08:19:41;;;;;;;9.37;4.73;;;;;;;25.05;34.23;97427.88;5021164;28;20445;-72
2023/06/03 08:22:36;;;;;;;8.73;4.47;;;;;;;25.18;34.02;97428.66;5016769;28;20427;-71
2023/06/03 08:25:02;;;;;;;12.20;4.40;;;;;;;25.38;33.14;97428.19;5019599;28;21002;-70
2023/06/03 08:27:30;;;;;;;7.10;4.47;;;;;;;25.49;33.31;97437.25;5018083;28;20423;-70
2023/06/03 08:29:57;;;;;;;8.23;4.10;;;;;;;25.51;33.28;97441.31;5015658;28;20241;-70
2023/06/03 08:32:23;;;;;;;12.17;4.70;;;;;;;25.54;33.16;97442.69;5015000;28;20514;-70
2023/06/03 08:34:48;;;;;;;9.93;4.50;;;;;;;25.59;33.04;97440.09;5009353;28;20522;-70
2023/06/03 08:37:14;;;;;;;12.43;4.80;;;;;;;25.67;33.08;97433.50;5023538;28;20200;-70
2023/06/03 08:39:39;;;;;;;6.83;4.43;;;;;;;25.81;32.60;97436.66;5019915;28;20618;-72
2023/06/03 08:42:06;;;;;;;9.10;4.60;;;;;;;25.85;32.86;97435.13;5018809;28;20280;-70
2023/06/03 08:44:37;;;;;;;11.77;4.67;;;;;;;25.98;32.71;97431.28;5017222;28;20192;-71
2023/06/03 08:47:12;;;;;;;9.00;4.30;;;;;;;26.05;32.52;97434.63;5019859;28;20412;-71
2023/06/03 08:49:47;;;;;;;9.43;5.00;;;;;;;26.09;32.54;97433.03;5013768;28;21148;-72
2023/06/03 08:52:12;;;;;;;9.13;4.47;;;;;;;26.09;32.75;97435.72;5008530;28;20427;-70
2023/06/03 08:54:40;;;;;;;9.10;4.50;;;;;;;26.20;31.99;97434.03;5008336;28;20886;-69
2023/06/03 08:57:08;;;;;;;12.40;5.07;;;;;;;26.22;32.28;97432.72;5012896;28;20208;-70
2023/06/03 08:59:36;;;;;;;11.57;5.10;;;;;;;26.32;32.24;97442.00;5012228;28;20442;-70
2023/06/03 09:02:04;;;;;;;14.50;4.70;;;;;;;26.52;32.18;97430.69;5015981;28;20459;-71
2023/06/03 09:04:30;;;;;;;9.23;4.43;;;;;;;26.71;31.96;97433.03;5022169;28;20935;-71
2023/06/03 09:06:57;;;;;;;9.10;4.77;;;;;;;26.85;31.60;97437.00;5009539;28;21002;-71
2023/06/03 09:09:23;;;;;;;6.60;4.60;;;;;;;26.98;31.84;97433.91;5010012;28;20434;-70
2023/06/03 09:11:49;;;;;;;7.00;4.83;;;;;;;27.12;31.39;97431.63;5013564;28;20840;-70
2023/06/03 09:14:17;;;;;;;11.23;4.63;;;;;;;27.24;31.01;97441.41;5021667;28;20175;-71
2023/06/03 09:16:43;;;;;;;7.70;4.63;;;;;;;27.40;30.58;97437.00;5012627;28;20463;-69
2023/06/03 09:19:09;;;;;;;13.73;5.00;;;;;;;27.55;30.55;97436.34;5022882;28;20431;-70
2023/06/03 09:21:37;;;;;;;13.53;5.37;;;;;;;27.72;29.85;97438.88;5014106;28;20188;-71
2023/06/03 09:24:02;;;;;;;16.80;4.20;;;;;;;27.97;30.45;97445.53;5003205;28;20188;-70
2023/06/03 09:26:28;;;;;;;17.50;4.67;;;;;;;28.09;29.92;97432.69;5009645;28;20442;-70
2023/06/03 09:28:53;;;;;;;10.20;4.30;;;;;;;28.22;29.68;97436.81;5018962;28;20552;-70
2023/06/03 09:31:19;;;;;;;7.53;4.67;;;;;;;28.22;29.64;97433.31;5009121;28;20199;-70
2023/06/03 09:33:45;;;;;;;10.63;5.33;;;;;;;28.14;29.58;97437.28;5022221;28;20261;-71
2023/06/03 09:36:13;;;;;;;11.40;4.37;;;;;;;28.05;29.99;97432.38;5015920;28;20551;-70
2023/06/03 09:38:46;;;;;;;8.53;4.60;;;;;;;28.18;30.42;97433.03;5014055;28;20263;-70
2023/06/03 09:41:16;;;;;;;9.13;4.67;;;;;;;28.25;30.09;97428.19;5017153;28;20509;-70
2023/06/03 09:44:10;;;;;;;13.07;5.00;;;;;;;28.36;29.90;97434.47;5016819;28;20494;-69
2023/06/03 09:46:36;;;;;;;15.67;6.07;;;;;;;28.45;29.02;97429.38;5007800;28;20463;-72
2023/06/03 09:49:09;;;;;;;11.03;4.70;;;;;;;28.52;29.42;97427.25;5010232;28;20426;-70
2023/06/03 09:51:48;;;;;;;14.60;5.10;;;;;;;28.59;29.13;97427.81;5011681;28;20435;-72
2023/06/03 09:54:15;;;;;;;11.43;4.63;;;;;;;28.67;29.68;97423.78;5020999;28;20422;-72
2023/06/03 09:56:41;;;;;;;11.20;4.87;;;;;;;28.76;30.11;97426.81;5010002;28;20455;-71
2023/06/03 09:59:18;;;;;;;11.70;4.50;;;;;;;28.80;29.75;97420.63;5012988;28;20435;-72
2023/06/03 10:01:47;;;;;;;9.10;4.30;;;;;;;28.91;29.72;97417.97;5014365;28;20451;-71
2023/06/03 10:04:22;;;;;;;10.63;5.10;;;;;;;28.95;28.54;97424.44;5007903;28;20419;-71
2023/06/03 10:06:49;;;;;;;8.30;4.87;;;;;;;29.10;29.07;97429.84;5006113;28;20505;-72
2023/06/03 10:09:21;;;;;;;9.07;4.90;;;;;;;29.04;28.90;97427.41;5008419;28;20481;-69
2023/06/03 10:11:51;;;;;;;9.43;4.77;;;;;;;29.22;29.05;97418.00;5011015;28;20422;-70
2023/06/03 10:14:21;;;;;;;11.37;5.00;;;;;;;29.19;28.69;97422.06;5014129;28;20419;-72
2023/06/03 10:17:06;;;;;;;5.87;4.70;;;;;;;29.28;28.81;97416.94;5015538;28;20462;-72
2023/06/03 10:19:35;;;;;;;10.03;4.70;;;;;;;29.24;29.12;97419.34;5010478;28;20454;-71
2023/06/03 10:22:02;;;;;;;10.10;5.07;;;;;;;29.38;28.85;97416.13;5022695;28;20907;-72
2023/06/03 10:24:30;;;;;;;11.03;5.43;;;;;;;29.44;28.84;97417.78;5016380;28;20418;-72
2023/06/03 10:26:56;;;;;;;11.00;4.73;;;;;;;29.26;28.48;97413.69;5012071;28;20418;-70
2023/06/03 10:29:21;;;;;;;7.30;5.00;;;;;;;29.34;28.54;97407.78;5018414;28;20422;-71
2023/06/03 10:31:49;;;;;;;9.07;4.53;;;;;;;29.49;28.92;97409.66;5020618;28;20188;-71
2023/06/03 10:34:15;;;;;;;7.27;4.63;;;;;;;29.56;28.93;97401.28;5018220;28;20243;-72
2023/06/03 10:36:42;;;;;;;8.87;4.63;;;;;;;29.75;29.03;97400.75;5019180;28;21222;-71
2023/06/03 10:39:10;;;;;;;10.20;5.17;;;;;;;29.63;28.63;97414.50;5016217;28;20684;-70
2023/06/03 10:41:38;;;;;;;10.60;4.80;;;;;;;29.69;28.08;97399.94;5015961;28;20419;-70
2023/06/03 10:44:04;;;;;;;7.40;4.70;;;;;;;29.90;28.83;97389.91;5016524;28;20426;-69
2023/06/03 10:46:29;;;;;;;7.90;5.00;;;;;;;30.09;28.25;97387.47;5014216;28;20465;-72
2023/06/03 10:48:55;;;;;;;11.27;4.90;;;;;;;30.21;28.79;97394.44;5010409;28;20180;-70
2023/06/03 10:51:44;;;;;;;9.27;5.37;;;;;;;30.17;27.98;97397.69;5011369;28;20239;-71
2023/06/03 10:54:35;;;;;;;7.67;5.07;;;;;;;30.25;27.66;97400.91;5010060;28;20430;-69
2023/06/03 10:57:08;;;;;;;8.23;4.73;;;;;;;30.32;28.63;97393.31;5009801;28;20463;-70
2023/06/03 10:59:45;;;;;;;7.63;5.67;;;;;;;30.34;27.80;97393.84;5006169;28;20474;-71
2023/06/03 11:02:11;;;;;;;10.93;5.10;;;;;;;30.40;28.00;97387.34;5014958;28;20986;-70
2023/06/03 11:04:38;;;;;;;14.30;5.20;;;;;;;30.47;27.58;97385.16;5012996;28;20898;-70
2023/06/03 11:07:27;;;;;;;9.10;5.50;;;;;;;30.03;27.59;97385.84;5011200;28;20470;-70
2023/06/03 11:09:54;;;;;;;14.70;5.03;;;;;;;30.31;28.37;97383.59;5024745;28;20847;-70
2023/06/03 11:12:20;;;;;;;7.03;4.30;;;;;;;30.56;28.55;97392.69;5015997;28;20954;-69
2023/06/03 11:14:48;;;;;;;6.33;4.93;;;;;;;30.77;28.04;97379.88;5013786;28;20474;-69
2023/06/03 11:17:18;;;;;;;12.50;5.47;;;;;;;30.79;27.17;97392.03;5019654;28;20556;-70
2023/06/03 11:19:43;;;;;;;10.73;5.33;;;;;;;30.88;26.79;97391.44;5022304;28;20526;-70
2023/06/03 11:22:09;;;;;;;8.03;4.87;;;;;;;30.73;27.03;97386.94;5013622;28;20526;-70
2023/06/03 11:24:38;;;;;;;5.77;4.83;;;;;;;30.83;27.12;97391.47;5012358;28;20188;-71
2023/06/03 11:27:09;;;;;;;10.30;5.20;;;;;;;30.91;26.32;97383.59;5013963;28;20414;-72
2023/06/03 11:29:56;;;;;;;10.77;5.50;;;;;;;31.05;27.10;97391.06;5015491;28;20423;-72
2023/06/03 11:32:29;;;;;;;7.70;4.77;;;;;;;30.93;27.84;97388.69;5011091;28;20514;-71